sensor_id;sensor_type;location;lat;lon;timestamp;pressure;altitude;pressure_sealevel;temperature;humidity
43804;BME280;29430;52.924;-2.388;2023-09-19T00:00:43;98056.38;;;11.41;93.04
43804;BME280;29430;52.924;-2.388;2023-09-19T00:05:37;98042.28;;;11.39;92.94
43804;BME280;29430;52.924;-2.388;2023-09-19T00:10:36;98053.94;;;11.39;93.55
43804;BME280;29430;52.924;-2.388;2023-09-19T00:15:28;98048.22;;;11.36;92.98
43804;BME280;29430;52.924;-2.388;2023-09-19T00:20:20;98043.59;;;11.36;93.26
43804;BME280;29430;52.924;-2.388;2023-09-19T00:25:14;98030.56;;;11.33;93.12
43804;BME280;29430;52.924;-2.388;2023-09-19T00:30:08;98024.59;;;11.36;93.15
43804;BME280;29430;52.924;-2.388;2023-09-19T00:35:05;98030.84;;;11.37;92.36
43804;BME280;29430;52.924;-2.388;2023-09-19T00:39:57;98035.75;;;11.40;92.33
43804;BME280;29430;52.924;-2.388;2023-09-19T00:44:49;98053.41;;;11.42;92.19
43804;BME280;29430;52.924;-2.388;2023-09-19T00:49:44;98046.06;;;11.43;92.14
43804;BME280;29430;52.924;-2.388;2023-09-19T00:54:36;98057.47;;;11.40;92.02
43804;BME280;29430;52.924;-2.388;2023-09-19T00:59:28;98046.63;;;11.45;91.63
43804;BME280;29430;52.924;-2.388;2023-09-19T01:04:22;98033.88;;;11.45;91.73
43804;BME280;29430;52.924;-2.388;2023-09-19T01:09:14;98032.81;;;11.46;91.33
43804;BME280;29430;52.924;-2.388;2023-09-19T01:14:49;98028.72;;;11.49;91.88
43804;BME280;29430;52.924;-2.388;2023-09-19T01:19:29;98035.00;;;11.50;92.48
43804;BME280;29430;52.924;-2.388;2023-09-19T01:24:46;98019.50;;;11.50;92.22
43804;BME280;29430;52.924;-2.388;2023-09-19T01:29:46;98037.69;;;11.50;92.27
43804;BME280;29430;52.924;-2.388;2023-09-19T01:34:56;98019.78;;;11.49;92.52
43804;BME280;29430;52.924;-2.388;2023-09-19T01:39:59;98002.41;;;11.50;92.42
43804;BME280;29430;52.924;-2.388;2023-09-19T01:45:07;98010.81;;;11.48;92.43
43804;BME280;29430;52.924;-2.388;2023-09-19T01:55:26;98007.84;;;11.50;92.53
43804;BME280;29430;52.924;-2.388;2023-09-19T02:00:21;98002.69;;;11.53;92.66
43804;BME280;29430;52.924;-2.388;2023-09-19T02:05:22;98004.03;;;11.51;92.84
43804;BME280;29430;52.924;-2.388;2023-09-19T02:10:16;97994.81;;;11.52;93.23
43804;BME280;29430;52.924;-2.388;2023-09-19T02:15:08;97994.00;;;11.51;93.65
43804;BME280;29430;52.924;-2.388;2023-09-19T02:20:00;97979.88;;;11.54;93.92
43804;BME280;29430;52.924;-2.388;2023-09-19T02:24:53;97979.06;;;11.54;94.01
43804;BME280;29430;52.924;-2.388;2023-09-19T02:29:45;97979.34;;;11.57;94.70
43804;BME280;29430;52.924;-2.388;2023-09-19T02:34:36;97970.94;;;11.59;95.49
43804;BME280;29430;52.924;-2.388;2023-09-19T02:39:31;97966.84;;;11.61;96.00
43804;BME280;29430;52.924;-2.388;2023-09-19T02:44:23;97960.34;;;11.57;96.50
43804;BME280;29430;52.924;-2.388;2023-09-19T02:49:15;97961.69;;;11.60;96.79
43804;BME280;29430;52.924;-2.388;2023-09-19T02:54:07;97955.72;;;11.63;96.27
43804;BME280;29430;52.924;-2.388;2023-09-19T02:58:59;97951.41;;;11.62;96.38
43804;BME280;29430;52.924;-2.388;2023-09-19T03:03:52;97954.09;;;11.62;96.73
43804;BME280;29430;52.924;-2.388;2023-09-19T03:08:44;97944.31;;;11.61;96.37
43804;BME280;29430;52.924;-2.388;2023-09-19T03:13:38;97949.50;;;11.62;96.22
43804;BME280;29430;52.924;-2.388;2023-09-19T03:18:30;97950.56;;;11.61;97.39
43804;BME280;29430;52.924;-2.388;2023-09-19T03:23:23;97936.19;;;11.61;98.24
43804;BME280;29430;52.924;-2.388;2023-09-19T03:28:15;97918.50;;;11.58;99.44
43804;BME280;29430;52.924;-2.388;2023-09-19T03:33:07;97906.84;;;11.58;100.00
43804;BME280;29430;52.924;-2.388;2023-09-19T03:37:59;97907.91;;;11.57;100.00
43804;BME280;29430;52.924;-2.388;2023-09-19T03:42:51;97890.56;;;11.58;100.00
43804;BME280;29430;52.924;-2.388;2023-09-19T03:47:43;97880.75;;;11.57;100.00
43804;BME280;29430;52.924;-2.388;2023-09-19T03:52:34;97868.81;;;11.58;100.00
43804;BME280;29430;52.924;-2.388;2023-09-19T03:57:26;97845.47;;;11.57;100.00
43804;BME280;29430;52.924;-2.388;2023-09-19T04:02:19;97853.06;;;11.60;100.00
43804;BME280;29430;52.924;-2.388;2023-09-19T04:07:14;97820.75;;;11.58;100.00
43804;BME280;29430;52.924;-2.388;2023-09-19T04:12:07;97810.44;;;11.55;100.00
43804;BME280;29430;52.924;-2.388;2023-09-19T04:17:00;97794.44;;;11.49;100.00
43804;BME280;29430;52.924;-2.388;2023-09-19T04:21:52;97790.63;;;11.50;100.00
43804;BME280;29430;52.924;-2.388;2023-09-19T04:26:44;97774.31;;;11.44;100.00
43804;BME280;29430;52.924;-2.388;2023-09-19T04:31:35;97753.44;;;11.40;100.00
43804;BME280;29430;52.924;-2.388;2023-09-19T04:36:28;97726.03;;;11.36;100.00
43804;BME280;29430;52.924;-2.388;2023-09-19T04:41:26;97719.22;;;11.34;100.00
43804;BME280;29430;52.924;-2.388;2023-09-19T04:46:18;97724.94;;;11.37;100.00
43804;BME280;29430;52.924;-2.388;2023-09-19T04:51:10;97713.00;;;11.33;100.00
43804;BME280;29430;52.924;-2.388;2023-09-19T04:56:02;97688.03;;;11.36;100.00
43804;BME280;29430;52.924;-2.388;2023-09-19T05:00:55;97674.44;;;11.41;100.00
43804;BME280;29430;52.924;-2.388;2023-09-19T05:05:47;97671.44;;;11.43;100.00
43804;BME280;29430;52.924;-2.388;2023-09-19T05:10:39;97647.03;;;11.43;100.00
43804;BME280;29430;52.924;-2.388;2023-09-19T05:15:31;97637.53;;;11.45;100.00
43804;BME280;29430;52.924;-2.388;2023-09-19T05:20:23;97637.78;;;11.49;100.00
43804;BME280;29430;52.924;-2.388;2023-09-19T05:25:31;97623.13;;;11.50;100.00
43804;BME280;29430;52.924;-2.388;2023-09-19T05:30:24;97605.47;;;11.53;100.00
43804;BME280;29430;52.924;-2.388;2023-09-19T05:35:16;97591.63;;;11.54;100.00
43804;BME280;29430;52.924;-2.388;2023-09-19T05:40:08;97589.19;;;11.53;100.00
43804;BME280;29430;52.924;-2.388;2023-09-19T05:45:01;97579.38;;;11.57;100.00
43804;BME280;29430;52.924;-2.388;2023-09-19T05:49:52;97575.31;;;11.59;100.00
43804;BME280;29430;52.924;-2.388;2023-09-19T05:54:45;97556.28;;;11.64;100.00
43804;BME280;29430;52.924;-2.388;2023-09-19T05:59:36;97551.13;;;11.68;100.00
43804;BME280;29430;52.924;-2.388;2023-09-19T06:04:28;97541.84;;;11.69;100.00
43804;BME280;29430;52.924;-2.388;2023-09-19T06:09:22;97550.00;;;11.74;100.00
43804;BME280;29430;52.924;-2.388;2023-09-19T06:14:14;97528.47;;;11.83;100.00
43804;BME280;29430;52.924;-2.388;2023-09-19T06:19:09;97528.75;;;11.87;100.00
43804;BME280;29430;52.924;-2.388;2023-09-19T06:24:02;97505.94;;;11.93;100.00
43804;BME280;29430;52.924;-2.388;2023-09-19T06:28:54;97512.41;;;11.97;100.00
43804;BME280;29430;52.924;-2.388;2023-09-19T06:33:47;97493.63;;;12.06;100.00
43804;BME280;29430;52.924;-2.388;2023-09-19T06:38:39;97492.72;;;12.15;100.00
43804;BME280;29430;52.924;-2.388;2023-09-19T06:43:31;97487.50;;;12.24;100.00
43804;BME280;29430;52.924;-2.388;2023-09-19T06:48:25;97483.59;;;12.35;100.00
43804;BME280;29430;52.924;-2.388;2023-09-19T06:53:18;97485.38;;;12.50;100.00
43804;BME280;29430;52.924;-2.388;2023-09-19T06:58:10;97459.41;;;12.63;100.00
43804;BME280;29430;52.924;-2.388;2023-09-19T07:03:06;97466.91;;;12.77;100.00
43804;BME280;29430;52.924;-2.388;2023-09-19T07:08:00;97441.50;;;12.86;100.00
43804;BME280;29430;52.924;-2.388;2023-09-19T07:13:03;97437.34;;;12.94;100.00
43804;BME280;29430;52.924;-2.388;2023-09-19T07:17:57;97437.22;;;13.04;100.00
43804;BME280;29430;52.924;-2.388;2023-09-19T07:22:49;97420.25;;;13.13;100.00
43804;BME280;29430;52.924;-2.388;2023-09-19T07:27:42;97435.94;;;13.21;100.00
43804;BME280;29430;52.924;-2.388;2023-09-19T07:32:34;97431.72;;;13.34;100.00
43804;BME280;29430;52.924;-2.388;2023-09-19T07:37:30;97406.56;;;13.42;100.00
43804;BME280;29430;52.924;-2.388;2023-09-19T07:42:24;97394.72;;;13.52;100.00
43804;BME280;29430;52.924;-2.388;2023-09-19T07:47:17;97371.75;;;13.58;100.00
43804;BME280;29430;52.924;-2.388;2023-09-19T07:52:09;97364.31;;;13.64;100.00
43804;BME280;29430;52.924;-2.388;2023-09-19T07:57:02;97372.13;;;13.70;100.00
43804;BME280;29430;52.924;-2.388;2023-09-19T08:01:53;97355.59;;;13.81;100.00
43804;BME280;29430;52.924;-2.388;2023-09-19T08:06:45;97378.63;;;13.88;100.00
43804;BME280;29430;52.924;-2.388;2023-09-19T08:11:37;97373.63;;;13.95;100.00
43804;BME280;29430;52.924;-2.388;2023-09-19T08:16:28;97382.25;;;14.03;100.00
43804;BME280;29430;52.924;-2.388;2023-09-19T08:21:23;97404.16;;;14.11;100.00
43804;BME280;29430;52.924;-2.388;2023-09-19T08:26:15;97420.44;;;14.17;100.00
43804;BME280;29430;52.924;-2.388;2023-09-19T08:31:08;97412.69;;;14.24;100.00
43804;BME280;29430;52.924;-2.388;2023-09-19T08:36:04;97421.09;;;14.27;100.00
43804;BME280;29430;52.924;-2.388;2023-09-19T08:41:00;97421.00;;;14.32;100.00
43804;BME280;29430;52.924;-2.388;2023-09-19T08:46:14;97431.94;;;14.46;100.00
43804;BME280;29430;52.924;-2.388;2023-09-19T08:51:07;97430.94;;;14.56;100.00
43804;BME280;29430;52.924;-2.388;2023-09-19T08:56:03;97419.28;;;14.70;100.00
43804;BME280;29430;52.924;-2.388;2023-09-19T09:01:00;97424.13;;;14.86;100.00
43804;BME280;29430;52.924;-2.388;2023-09-19T09:05:53;97423.13;;;14.96;100.00
43804;BME280;29430;52.924;-2.388;2023-09-19T09:10:45;97431.13;;;15.07;100.00
43804;BME280;29430;52.924;-2.388;2023-09-19T09:15:37;97446.78;;;15.15;100.00
43804;BME280;29430;52.924;-2.388;2023-09-19T09:20:29;97422.31;;;15.24;100.00
43804;BME280;29430;52.924;-2.388;2023-09-19T09:25:22;97428.25;;;15.39;100.00
43804;BME280;29430;52.924;-2.388;2023-09-19T09:30:33;97427.13;;;15.54;100.00
43804;BME280;29430;52.924;-2.388;2023-09-19T09:35:25;97426.97;;;15.73;100.00
43804;BME280;29430;52.924;-2.388;2023-09-19T09:40:17;97430.69;;;15.91;100.00
43804;BME280;29430;52.924;-2.388;2023-09-19T09:45:12;97409.56;;;16.06;100.00
43804;BME280;29430;52.924;-2.388;2023-09-19T09:50:04;97416.38;;;16.17;100.00
43804;BME280;29430;52.924;-2.388;2023-09-19T09:55:08;97423.03;;;16.25;100.00
43804;BME280;29430;52.924;-2.388;2023-09-19T10:00:02;97428.56;;;16.34;100.00
43804;BME280;29430;52.924;-2.388;2023-09-19T10:05:16;97428.13;;;16.40;100.00
43804;BME280;29430;52.924;-2.388;2023-09-19T10:10:11;97432.66;;;16.45;100.00
43804;BME280;29430;52.924;-2.388;2023-09-19T10:15:17;97412.09;;;16.47;100.00
43804;BME280;29430;52.924;-2.388;2023-09-19T10:20:13;97449.47;;;16.52;100.00
43804;BME280;29430;52.924;-2.388;2023-09-19T10:25:15;97444.47;;;16.54;100.00
43804;BME280;29430;52.924;-2.388;2023-09-19T10:30:12;97459.16;;;16.58;100.00
43804;BME280;29430;52.924;-2.388;2023-09-19T10:35:04;97426.16;;;16.63;100.00
43804;BME280;29430;52.924;-2.388;2023-09-19T10:39:58;97456.47;;;16.67;100.00
43804;BME280;29430;52.924;-2.388;2023-09-19T10:44:51;97459.38;;;16.71;100.00
43804;BME280;29430;52.924;-2.388;2023-09-19T10:49:46;97459.38;;;16.71;100.00
43804;BME280;29430;52.924;-2.388;2023-09-19T10:54:39;97466.34;;;16.77;100.00
43804;BME280;29430;52.924;-2.388;2023-09-19T10:59:39;97460.25;;;16.80;100.00
43804;BME280;29430;52.924;-2.388;2023-09-19T11:05:12;97459.13;;;16.81;100.00
43804;BME280;29430;52.924;-2.388;2023-09-19T11:10:05;97465.09;;;16.83;100.00
43804;BME280;29430;52.924;-2.388;2023-09-19T11:15:01;97468.31;;;16.85;100.00
43804;BME280;29430;52.924;-2.388;2023-09-19T11:30:27;97493.09;;;16.80;100.00
43804;BME280;29430;52.924;-2.388;2023-09-19T11:35:19;97493.41;;;16.78;100.00
43804;BME280;29430;52.924;-2.388;2023-09-19T11:40:11;97487.44;;;16.76;100.00
43804;BME280;29430;52.924;-2.388;2023-09-19T11:50:38;97501.56;;;16.70;100.00
43804;BME280;29430;52.924;-2.388;2023-09-19T11:55:34;97507.53;;;16.72;100.00
43804;BME280;29430;52.924;-2.388;2023-09-19T12:00:28;97506.22;;;16.69;100.00
43804;BME280;29430;52.924;-2.388;2023-09-19T12:05:28;97514.13;;;16.71;100.00
43804;BME280;29430;52.924;-2.388;2023-09-19T12:10:20;97499.03;;;16.73;100.00
43804;BME280;29430;52.924;-2.388;2023-09-19T12:15:15;97508.81;;;16.74;100.00
43804;BME280;29430;52.924;-2.388;2023-09-19T12:20:07;97502.72;;;16.77;100.00
43804;BME280;29430;52.924;-2.388;2023-09-19T12:25:06;97506.94;;;16.83;100.00
43804;BME280;29430;52.924;-2.388;2023-09-19T12:29:58;97490.22;;;16.85;100.00
43804;BME280;29430;52.924;-2.388;2023-09-19T12:35:00;97509.28;;;16.90;100.00
43804;BME280;29430;52.924;-2.388;2023-09-19T12:40:07;97511.09;;;16.95;100.00
43804;BME280;29430;52.924;-2.388;2023-09-19T12:45:14;97521.28;;;17.03;100.00
43804;BME280;29430;52.924;-2.388;2023-09-19T12:50:12;97505.38;;;17.14;100.00
43804;BME280;29430;52.924;-2.388;2023-09-19T12:55:29;97508.50;;;17.30;100.00
43804;BME280;29430;52.924;-2.388;2023-09-19T13:00:37;97498.69;;;17.38;100.00
43804;BME280;29430;52.924;-2.388;2023-09-19T13:05:49;97511.94;;;17.44;100.00
43804;BME280;29430;52.924;-2.388;2023-09-19T13:11:18;97515.81;;;17.43;100.00
43804;BME280;29430;52.924;-2.388;2023-09-19T13:16:12;97514.81;;;17.39;100.00
43804;BME280;29430;52.924;-2.388;2023-09-19T13:21:10;97520.28;;;17.39;100.00
43804;BME280;29430;52.924;-2.388;2023-09-19T13:26:04;97505.78;;;17.39;100.00
43804;BME280;29430;52.924;-2.388;2023-09-19T13:30:58;97501.09;;;17.39;100.00
43804;BME280;29430;52.924;-2.388;2023-09-19T13:35:50;97513.69;;;17.40;100.00
43804;BME280;29430;52.924;-2.388;2023-09-19T13:40:42;97519.19;;;17.40;100.00
43804;BME280;29430;52.924;-2.388;2023-09-19T13:45:34;97533.38;;;17.42;100.00
43804;BME280;29430;52.924;-2.388;2023-09-19T13:50:26;97530.31;;;17.44;100.00
43804;BME280;29430;52.924;-2.388;2023-09-19T13:55:20;97537.72;;;17.43;100.00
43804;BME280;29430;52.924;-2.388;2023-09-19T14:00:12;97549.63;;;17.39;100.00
43804;BME280;29430;52.924;-2.388;2023-09-19T14:05:07;97554.44;;;17.33;100.00
43804;BME280;29430;52.924;-2.388;2023-09-19T14:09:59;97554.44;;;17.33;100.00
43804;BME280;29430;52.924;-2.388;2023-09-19T14:14:51;97536.22;;;17.28;100.00
43804;BME280;29430;52.924;-2.388;2023-09-19T14:19:43;97553.28;;;17.25;100.00
43804;BME280;29430;52.924;-2.388;2023-09-19T14:24:37;97565.69;;;17.23;100.00
43804;BME280;29430;52.924;-2.388;2023-09-19T14:29:30;97572.44;;;17.16;100.00
43804;BME280;29430;52.924;-2.388;2023-09-19T14:34:22;97573.47;;;17.07;100.00
43804;BME280;29430;52.924;-2.388;2023-09-19T14:39:13;97576.34;;;17.02;100.00
43804;BME280;29430;52.924;-2.388;2023-09-19T14:44:05;97580.19;;;16.92;100.00
43804;BME280;29430;52.924;-2.388;2023-09-19T14:48:57;97567.69;;;16.86;100.00
43804;BME280;29430;52.924;-2.388;2023-09-19T14:53:52;97575.72;;;16.82;100.00
43804;BME280;29430;52.924;-2.388;2023-09-19T14:58:44;97554.75;;;16.77;100.00
43804;BME280;29430;52.924;-2.388;2023-09-19T15:03:36;97572.31;;;16.76;100.00
43804;BME280;29430;52.924;-2.388;2023-09-19T15:08:29;97567.56;;;16.68;100.00
43804;BME280;29430;52.924;-2.388;2023-09-19T15:13:20;97577.72;;;16.68;100.00
43804;BME280;29430;52.924;-2.388;2023-09-19T15:18:12;97572.06;;;16.64;100.00
43804;BME280;29430;52.924;-2.388;2023-09-19T15:23:04;97561.22;;;16.59;100.00
43804;BME280;29430;52.924;-2.388;2023-09-19T15:27:58;97562.84;;;16.60;100.00
43804;BME280;29430;52.924;-2.388;2023-09-19T15:32:54;97561.22;;;16.59;100.00
43804;BME280;29430;52.924;-2.388;2023-09-19T15:37:46;97554.94;;;16.58;100.00
43804;BME280;29430;52.924;-2.388;2023-09-19T15:42:38;97558.16;;;16.60;100.00
43804;BME280;29430;52.924;-2.388;2023-09-19T15:47:29;97562.22;;;16.63;100.00
43804;BME280;29430;52.924;-2.388;2023-09-19T15:52:22;97562.09;;;16.68;100.00
43804;BME280;29430;52.924;-2.388;2023-09-19T15:57:17;97573.25;;;16.72;100.00
43804;BME280;29430;52.924;-2.388;2023-09-19T16:02:09;97578.91;;;16.75;100.00
43804;BME280;29430;52.924;-2.388;2023-09-19T16:07:01;97582.13;;;16.77;100.00
43804;BME280;29430;52.924;-2.388;2023-09-19T16:11:53;97592.97;;;16.82;100.00
43804;BME280;29430;52.924;-2.388;2023-09-19T16:16:45;97574.59;;;16.83;100.00
43804;BME280;29430;52.924;-2.388;2023-09-19T16:21:37;97575.91;;;16.86;100.00
43804;BME280;29430;52.924;-2.388;2023-09-19T16:26:32;97591.75;;;16.89;100.00
43804;BME280;29430;52.924;-2.388;2023-09-19T16:31:23;97526.03;;;16.89;100.00
43804;BME280;29430;52.924;-2.388;2023-09-19T16:36:17;97532.00;;;16.91;100.00
43804;BME280;29430;52.924;-2.388;2023-09-19T16:41:09;97513.31;;;16.93;100.00
43804;BME280;29430;52.924;-2.388;2023-09-19T16:46:03;97526.69;;;16.94;100.00
43804;BME280;29430;52.924;-2.388;2023-09-19T16:51:10;97547.19;;;16.97;100.00
43804;BME280;29430;52.924;-2.388;2023-09-19T16:56:04;97550.41;;;16.99;100.00
43804;BME280;29430;52.924;-2.388;2023-09-19T17:00:57;97537.22;;;17.01;100.00
43804;BME280;29430;52.924;-2.388;2023-09-19T17:05:49;97541.56;;;17.02;100.00
43804;BME280;29430;52.924;-2.388;2023-09-19T17:10:41;97560.38;;;16.95;100.00
43804;BME280;29430;52.924;-2.388;2023-09-19T17:15:35;97569.44;;;16.81;100.00
43804;BME280;29430;52.924;-2.388;2023-09-19T17:20:27;97557.63;;;16.72;100.00
43804;BME280;29430;52.924;-2.388;2023-09-19T17:25:18;97573.66;;;16.65;100.00
43804;BME280;29430;52.924;-2.388;2023-09-19T17:30:12;97567.81;;;16.58;100.00
43804;BME280;29430;52.924;-2.388;2023-09-19T17:35:07;97573.72;;;16.51;100.00
43804;BME280;29430;52.924;-2.388;2023-09-19T17:40:00;97572.41;;;16.49;100.00
43804;BME280;29430;52.924;-2.388;2023-09-19T17:44:55;97582.34;;;16.44;100.00
43804;BME280;29430;52.924;-2.388;2023-09-19T17:49:47;97562.81;;;16.37;100.00
43804;BME280;29430;52.924;-2.388;2023-09-19T17:54:43;97571.63;;;16.34;100.00
43804;BME280;29430;52.924;-2.388;2023-09-19T17:59:36;97576.63;;;16.32;100.00
43804;BME280;29430;52.924;-2.388;2023-09-19T18:04:28;97568.00;;;16.25;100.00
43804;BME280;29430;52.924;-2.388;2023-09-19T18:09:20;97576.53;;;16.23;100.00
43804;BME280;29430;52.924;-2.388;2023-09-19T18:14:13;97570.88;;;16.20;100.00
43804;BME280;29430;52.924;-2.388;2023-09-19T18:19:07;97579.09;;;16.20;100.00
43804;BME280;29430;52.924;-2.388;2023-09-19T18:23:59;97572.81;;;16.19;100.00
43804;BME280;29430;52.924;-2.388;2023-09-19T18:29:05;97558.63;;;16.17;100.00
43804;BME280;29430;52.924;-2.388;2023-09-19T18:33:57;97567.13;;;16.16;100.00
43804;BME280;29430;52.924;-2.388;2023-09-19T18:38:50;97567.75;;;16.13;100.00
43804;BME280;29430;52.924;-2.388;2023-09-19T18:43:43;97548.59;;;16.13;100.00
43804;BME280;29430;52.924;-2.388;2023-09-19T18:48:36;97531.56;;;16.16;100.00
43804;BME280;29430;52.924;-2.388;2023-09-19T18:53:29;97558.44;;;16.14;100.00
43804;BME280;29430;52.924;-2.388;2023-09-19T18:58:21;97568.56;;;16.13;100.00
43804;BME280;29430;52.924;-2.388;2023-09-19T19:03:12;97576.88;;;16.08;100.00
43804;BME280;29430;52.924;-2.388;2023-09-19T19:08:06;97569.59;;;16.03;100.00
43804;BME280;29430;52.924;-2.388;2023-09-19T19:12:58;97568.91;;;15.98;100.00
43804;BME280;29430;52.924;-2.388;2023-09-19T19:17:50;97566.06;;;15.89;100.00
43804;BME280;29430;52.924;-2.388;2023-09-19T19:22:42;97555.06;;;15.80;100.00
43804;BME280;29430;52.924;-2.388;2023-09-19T19:27:35;97564.44;;;15.74;100.00
43804;BME280;29430;52.924;-2.388;2023-09-19T19:32:27;97550.56;;;15.70;100.00
43804;BME280;29430;52.924;-2.388;2023-09-19T19:37:19;97547.63;;;15.67;100.00
43804;BME280;29430;52.924;-2.388;2023-09-19T19:42:11;97539.88;;;15.60;100.00
43804;BME280;29430;52.924;-2.388;2023-09-19T19:47:04;97539.34;;;15.58;100.00
43804;BME280;29430;52.924;-2.388;2023-09-19T19:51:56;97550.78;;;15.60;100.00
43804;BME280;29430;52.924;-2.388;2023-09-19T19:56:48;97557.84;;;15.61;100.00
43804;BME280;29430;52.924;-2.388;2023-09-19T20:01:42;97559.50;;;15.62;100.00
43804;BME280;29430;52.924;-2.388;2023-09-19T20:06:34;97552.63;;;15.65;100.00
43804;BME280;29430;52.924;-2.388;2023-09-19T20:11:26;97550.19;;;15.63;100.00
43804;BME280;29430;52.924;-2.388;2023-09-19T20:16:21;97535.38;;;15.64;100.00
43804;BME280;29430;52.924;-2.388;2023-09-19T20:21:13;97537.63;;;15.62;100.00
43804;BME280;29430;52.924;-2.388;2023-09-19T20:26:05;97556.25;;;15.60;100.00
43804;BME280;29430;52.924;-2.388;2023-09-19T20:30:58;97539.03;;;15.60;100.00
43804;BME280;29430;52.924;-2.388;2023-09-19T20:35:50;97536.00;;;15.61;100.00
43804;BME280;29430;52.924;-2.388;2023-09-19T20:40:43;97537.63;;;15.62;100.00
43804;BME280;29430;52.924;-2.388;2023-09-19T20:45:35;97549.16;;;15.59;100.00
43804;BME280;29430;52.924;-2.388;2023-09-19T20:50:33;97551.59;;;15.61;100.00
43804;BME280;29430;52.924;-2.388;2023-09-19T20:55:25;97531.97;;;15.58;100.00
43804;BME280;29430;52.924;-2.388;2023-09-19T21:00:17;97538.72;;;15.61;100.00
43804;BME280;29430;52.924;-2.388;2023-09-19T21:05:11;97545.31;;;15.60;100.00
43804;BME280;29430;52.924;-2.388;2023-09-19T21:10:04;97529.25;;;15.58;100.00
43804;BME280;29430;52.924;-2.388;2023-09-19T21:14:57;97528.81;;;15.65;100.00
43804;BME280;29430;52.924;-2.388;2023-09-19T21:19:51;97522.56;;;15.65;100.00
43804;BME280;29430;52.924;-2.388;2023-09-19T21:24:46;97506.97;;;15.65;100.00
43804;BME280;29430;52.924;-2.388;2023-09-19T21:29:38;97491.66;;;15.64;100.00
43804;BME280;29430;52.924;-2.388;2023-09-19T21:34:30;97489.75;;;15.65;100.00
43804;BME280;29430;52.924;-2.388;2023-09-19T21:39:22;97493.28;;;15.65;100.00
43804;BME280;29430;52.924;-2.388;2023-09-19T21:44:14;97483.28;;;15.61;100.00
43804;BME280;29430;52.924;-2.388;2023-09-19T21:49:06;97490.88;;;15.64;100.00
43804;BME280;29430;52.924;-2.388;2023-09-19T21:53:58;97486.81;;;15.61;100.00
43804;BME280;29430;52.924;-2.388;2023-09-19T21:58:52;97470.09;;;15.63;100.00
43804;BME280;29430;52.924;-2.388;2023-09-19T22:03:45;97474.28;;;15.60;100.00
43804;BME280;29430;52.924;-2.388;2023-09-19T22:08:38;97460.94;;;15.58;100.00
43804;BME280;29430;52.924;-2.388;2023-09-19T22:13:30;97446.56;;;15.53;100.00
43804;BME280;29430;52.924;-2.388;2023-09-19T22:18:22;97456.06;;;15.55;100.00
43804;BME280;29430;52.924;-2.388;2023-09-19T22:23:15;97443.03;;;15.52;100.00
43804;BME280;29430;52.924;-2.388;2023-09-19T22:28:08;97461.84;;;15.54;100.00
43804;BME280;29430;52.924;-2.388;2023-09-19T22:33:03;97462.34;;;15.56;100.00
43804;BME280;29430;52.924;-2.388;2023-09-19T22:37:55;97450.31;;;15.57;100.00
43804;BME280;29430;52.924;-2.388;2023-09-19T22:43:04;97458.38;;;15.62;100.00
43804;BME280;29430;52.924;-2.388;2023-09-19T22:47:59;97442.28;;;15.61;100.00
43804;BME280;29430;52.924;-2.388;2023-09-19T22:52:51;97448.47;;;15.66;100.00
43804;BME280;29430;52.924;-2.388;2023-09-19T22:57:45;97450.59;;;15.69;100.00
43804;BME280;29430;52.924;-2.388;2023-09-19T23:02:38;97438.81;;;15.69;100.00
43804;BME280;29430;52.924;-2.388;2023-09-19T23:07:31;97437.72;;;15.70;100.00
43804;BME280;29430;52.924;-2.388;2023-09-19T23:12:22;97430.31;;;15.70;100.00
43804;BME280;29430;52.924;-2.388;2023-09-19T23:17:15;97436.09;;;15.69;100.00
43804;BME280;29430;52.924;-2.388;2023-09-19T23:22:12;97444.19;;;15.74;100.00
43804;BME280;29430;52.924;-2.388;2023-09-19T23:27:11;97424.22;;;15.73;100.00
43804;BME280;29430;52.924;-2.388;2023-09-19T23:32:10;97431.81;;;15.76;100.00
43804;BME280;29430;52.924;-2.388;2023-09-19T23:37:03;97433.97;;;15.80;100.00
43804;BME280;29430;52.924;-2.388;2023-09-19T23:41:56;97433.03;;;15.84;100.00
43804;BME280;29430;52.924;-2.388;2023-09-19T23:46:48;97438.19;;;15.86;100.00
43804;BME280;29430;52.924;-2.388;2023-09-19T23:51:47;97435.94;;;15.88;100.00
43804;BME280;29430;52.924;-2.388;2023-09-19T23:56:40;97416.31;;;15.86;100.00
